Time;durP1;ratioP1;P1;durP2;ratioP2;P2;SDS_P1;SDS_P2;PMS_P1;PMS_P2;Temp;Humidity;BMP_temperature;BMP_pressure;BME280_temperature;BME280_humidity;BME280_pressure;Samples;Min_cycle;Max_cycle;Signal;HPM_P1;HPM_P2
2022/05/22 00:01:23;;;;;;;8.18;3.97;;;21.40;67.30;;;;;;5072409;28;20028;-79
2022/05/22 00:03:50;;;;;;;7.15;3.97;;;21.30;67.50;;;;;;5055103;28;20090;-79
2022/05/22 00:06:16;;;;;;;8.32;3.78;;;21.30;68.00;;;;;;5072549;28;20424;-78
2022/05/22 00:08:42;;;;;;;7.63;4.40;;;21.20;68.20;;;;;;5072527;28;20032;-73
2022/05/22 00:11:14;;;;;;;;;;;21.10;68.80;;;;;;5053715;28;20086;-78
2022/05/22 00:13:40;;;;;;;8.70;4.40;;;21.10;67.50;;;;;;5054851;28;19924;-78
2022/05/22 00:18:51;;;;;;;8.68;4.30;;;21.00;67.50;;;;;;5072442;28;20027;-79
2022/05/22 00:21:17;;;;;;;7.28;4.10;;;21.00;68.60;;;;;;5072336;28;20028;-72
2022/05/22 00:23:44;;;;;;;9.43;4.15;;;21.00;69.10;;;;;;5072639;28;20060;-72
2022/05/22 00:26:10;;;;;;;7.65;4.00;;;21.00;69.30;;;;;;5058555;28;20048;-79
2022/05/22 00:28:36;;;;;;;9.07;4.07;;;20.90;69.50;;;;;;5073786;28;20036;-72
2022/05/22 00:31:02;;;;;;;;;;;20.90;69.60;;;;;;5093031;28;20378;-72
2022/05/22 00:33:29;;;;;;;7.05;4.32;;;20.80;67.60;;;;;;5074269;28;19927;-71
2022/05/22 00:35:55;;;;;;;8.18;4.90;;;20.90;69.40;;;;;;5091977;28;20451;-79
2022/05/22 00:38:21;;;;;;;10.88;4.35;;;20.80;69.00;;;;;;5092741;28;20047;-72
2022/05/22 00:43:30;;;;;;;7.37;3.80;;;20.80;68.70;;;;;;5071413;28;19916;-79
2022/05/22 00:45:57;;;;;;;9.90;3.65;;;20.70;69.40;;;;;;5071310;28;20028;-72
2022/05/22 00:48:26;;;;;;;7.18;3.50;;;20.70;69.90;;;;;;5072341;28;20508;-72
2022/05/22 00:50:57;;;;;;;7.00;3.65;;;20.60;69.80;;;;;;5037522;28;20028;-72
2022/05/22 00:53:31;;;;;;;6.43;3.60;;;20.60;69.70;;;;;;5054250;28;20037;-71
2022/05/22 00:55:57;;;;;;;5.80;3.45;;;20.70;69.60;;;;;;5054377;28;20029;-77
2022/05/22 00:58:28;;;;;;;8.23;4.03;;;20.70;69.50;;;;;;5053552;28;20040;-77
2022/05/22 01:00:54;;;;;;;6.47;3.40;;;20.70;69.60;;;;;;5054564;28;20024;-71
2022/05/22 01:03:28;;;;;;;6.55;4.22;;;20.70;69.80;;;;;;5054433;28;20041;-72
2022/05/22 01:06:16;;;;;;;8.00;3.67;;;20.70;70.00;;;;;;5053921;28;20039;-77
2022/05/22 01:08:43;;;;;;;7.75;3.65;;;20.70;69.90;;;;;;5054279;28;20119;-72
2022/05/22 01:11:17;;;;;;;6.50;3.50;;;20.70;69.80;;;;;;5037483;28;20032;-72
2022/05/22 01:13:48;;;;;;;5.78;3.40;;;20.70;69.80;;;;;;5053346;28;20090;-77
2022/05/22 01:16:14;;;;;;;6.25;3.85;;;20.70;69.70;;;;;;5053948;28;20025;-72
2022/05/22 01:19:00;;;;;;;8.05;3.47;;;20.70;69.60;;;;;;5072147;28;20094;-77
2022/05/22 01:21:33;;;;;;;6.60;3.60;;;20.70;69.50;;;;;;5053899;28;20029;-78
2022/05/22 01:23:59;;;;;;;12.57;3.88;;;20.70;69.40;;;;;;5037927;28;20079;-73
2022/05/22 01:26:27;;;;;;;;;;;20.80;69.40;;;;;;5054043;28;20375;-78
2022/05/22 01:28:54;;;;;;;6.40;3.50;;;20.80;68.50;;;;;;5071128;28;19959;-72
2022/05/22 01:31:27;;;;;;;;;;;20.70;69.10;;;;;;5054484;28;20032;-78
2022/05/22 01:33:53;;;;;;;8.60;3.38;;;20.70;68.40;;;;;;5054183;28;19920;-72
2022/05/22 01:36:19;;;;;;;;;;;20.70;68.90;;;;;;5054404;28;20397;-73
2022/05/22 01:38:45;;;;;;;6.43;3.35;;;20.70;68.10;;;;;;5072044;28;19927;-78
2022/05/22 01:41:11;;;;;;;;;;;20.70;68.60;;;;;;5072092;28;20432;-73
2022/05/22 01:43:37;;;;;;;7.93;3.88;;;20.70;68.00;;;;;;5052978;28;19920;-73
2022/05/22 01:46:03;;;;;;;;;;;20.70;68.50;;;;;;5053944;28;20484;-73
2022/05/22 01:48:30;;;;;;;6.53;3.30;;;20.60;67.10;;;;;;5053727;28;19967;-79
2022/05/22 01:50:56;;;;;;;6.13;3.00;;;20.60;68.10;;;;;;5071553;28;20052;-73
2022/05/22 01:53:23;;;;;;;5.82;2.78;;;20.60;67.70;;;;;;5053675;28;20389;-78
2022/05/22 01:55:50;;;;;;;5.65;2.53;;;20.60;68.30;;;;;;5038325;28;20039;-78
2022/05/22 01:58:17;;;;;;;6.53;2.95;;;20.50;68.30;;;;;;5056812;28;20048;-73
2022/05/22 02:00:43;;;;;;;5.70;2.67;;;20.40;68.10;;;;;;5057002;28;20402;-71
2022/05/22 02:03:09;;;;;;;;;;;20.40;68.30;;;;;;5075888;28;20036;-78
2022/05/22 02:05:36;;;;;;;6.57;2.90;;;20.30;67.90;;;;;;5057100;28;19913;-78
2022/05/22 02:11:07;;;;;;;6.07;2.90;;;20.20;68.60;;;;;;5059935;28;20155;-72
2022/05/22 02:13:38;;;;;;;7.13;3.53;;;20.30;68.40;;;;;;5036100;28;20045;-79
2022/05/22 02:16:05;;;;;;;9.98;3.05;;;20.30;68.50;;;;;;5037080;28;20029;-78
2022/05/22 02:18:32;;;;;;;7.40;3.30;;;20.30;68.30;;;;;;5054904;28;20044;-80
2022/05/22 02:20:58;;;;;;;8.20;3.03;;;20.30;68.10;;;;;;5036751;28;20025;-80
2022/05/22 02:23:24;;;;;;;7.28;3.20;;;20.30;68.20;;;;;;5037033;28;20186;-80
2022/05/22 02:25:53;;;;;;;;;;;20.30;68.30;;;;;;5037145;28;20036;-80
2022/05/22 02:28:22;;;;;;;6.05;2.95;;;20.30;67.40;;;;;;5056498;28;19920;-72
2022/05/22 02:31:08;;;;;;;6.63;2.80;;;20.30;67.80;;;;;;5074351;28;20024;-80
2022/05/22 02:33:35;;;;;;;6.78;2.58;;;20.40;68.00;;;;;;5056840;28;20045;-72
2022/05/22 02:36:03;;;;;;;5.95;3.17;;;20.40;68.10;;;;;;5074551;28;20044;-80
2022/05/22 02:38:30;;;;;;;6.13;2.97;;;20.40;67.40;;;;;;5057154;28;20059;-80
2022/05/22 02:40:56;;;;;;;6.10;2.72;;;20.40;67.60;;;;;;5056339;28;20508;-79
2022/05/22 02:43:22;;;;;;;;;;;20.40;68.10;;;;;;5053012;28;20412;-80
2022/05/22 02:45:48;;;;;;;5.85;2.80;;;20.50;67.50;;;;;;5036243;28;19913;-72
2022/05/22 02:48:14;;;;;;;8.32;3.00;;;20.50;67.80;;;;;;5036699;28;20075;-72
2022/05/22 02:50:41;;;;;;;;;;;20.50;68.00;;;;;;5036792;28;20191;-79
2022/05/22 02:53:08;;;;;;;;;;;20.50;67.30;;;;;;5037262;28;19913;-80
2022/05/22 02:55:34;;;;;;;10.73;3.30;;;20.50;66.80;;;;;;5036239;28;20271;-72
2022/05/22 02:58:01;;;;;;;7.25;2.83;;;20.40;66.70;;;;;;5057750;28;20040;-80
2022/05/22 03:00:30;;;;;;;;;;;20.50;67.80;;;;;;5074484;28;20551;-79
2022/05/22 03:02:57;;;;;;;7.68;3.10;;;20.50;67.00;;;;;;5039921;28;19920;-72
2022/05/22 03:05:26;;;;;;;6.47;3.22;;;20.50;67.60;;;;;;5055985;28;20041;-80
2022/05/22 03:07:53;;;;;;;6.88;2.60;;;20.50;67.90;;;;;;5073277;28;20040;-79
2022/05/22 03:10:19;;;;;;;7.90;3.20;;;20.50;67.80;;;;;;5056147;28;20032;-80
2022/05/22 03:12:45;;;;;;;8.73;3.03;;;20.50;68.00;;;;;;5055373;28;20051;-72
2022/05/22 03:15:13;;;;;;;;;;;20.50;68.10;;;;;;5074051;28;20060;-80
2022/05/22 03:17:40;;;;;;;13.57;3.28;;;20.60;67.20;;;;;;5056142;28;19959;-81
2022/05/22 03:20:07;;;;;;;5.80;2.75;;;20.50;67.00;;;;;;5074102;28;20033;-73
2022/05/22 03:22:33;;;;;;;7.38;2.70;;;20.50;67.50;;;;;;5055877;28;20029;-79
2022/05/22 03:24:59;;;;;;;6.50;2.75;;;20.50;67.60;;;;;;5056164;28;20044;-72
2022/05/22 03:27:25;;;;;;;;;;;20.40;67.40;;;;;;5039235;28;20075;-73
2022/05/22 03:29:52;;;;;;;6.30;3.08;;;20.40;66.30;;;;;;5051437;28;19921;-80
2022/05/22 03:32:26;;;;;;;6.75;2.90;;;20.40;67.10;;;;;;5053427;28;20159;-79
2022/05/22 03:34:52;;;;;;;5.13;2.75;;;20.40;67.20;;;;;;5037080;28;20575;-79
2022/05/22 03:37:18;;;;;;;6.85;2.65;;;20.50;67.50;;;;;;5035540;28;20025;-72
2022/05/22 03:39:44;;;;;;;5.93;2.65;;;20.50;67.40;;;;;;5035897;28;20482;-72
2022/05/22 03:42:10;;;;;;;;;;;20.50;67.30;;;;;;5035906;28;20096;-79
2022/05/22 03:44:37;;;;;;;7.60;3.10;;;20.40;66.70;;;;;;5049022;28;19927;-72
2022/05/22 03:47:04;;;;;;;8.20;3.03;;;20.40;66.70;;;;;;5038464;28;20028;-79
2022/05/22 03:49:30;;;;;;;5.70;2.30;;;20.40;66.70;;;;;;5055555;28;20310;-80
2022/05/22 03:51:56;;;;;;;;;;;20.40;66.70;;;;;;5073528;28;20067;-79
2022/05/22 03:54:22;;;;;;;6.40;2.30;;;20.30;66.40;;;;;;5073470;28;20273;-73
2022/05/22 03:56:48;;;;;;;;;;;20.30;66.60;;;;;;5073326;28;20024;-72
2022/05/22 03:59:17;;;;;;;16.30;2.75;;;20.30;65.50;;;;;;5034488;28;20278;-79
2022/05/22 04:01:43;;;;;;;10.75;2.38;;;20.30;66.30;;;;;;5051613;28;20037;-73
2022/05/22 04:04:09;;;;;;;;;;;20.30;66.10;;;;;;5052428;28;20397;-73
2022/05/22 04:06:36;;;;;;;5.65;2.25;;;20.30;65.70;;;;;;5051299;28;19913;-73
2022/05/22 04:09:03;;;;;;;;;;;20.30;65.70;;;;;;5053701;28;20047;-76
2022/05/22 04:11:35;;;;;;;6.55;2.33;;;20.30;65.40;;;;;;5052715;28;19913;-78
2022/05/22 04:14:02;;;;;;;4.50;2.05;;;20.30;65.50;;;;;;5050504;28;20056;-79
2022/05/22 04:16:28;;;;;;;4.55;1.77;;;20.30;65.00;;;;;;5034648;28;20326;-79
2022/05/22 04:18:54;;;;;;;6.55;1.95;;;20.30;64.90;;;;;;5034437;28;20128;-73
2022/05/22 04:21:20;;;;;;;;;;;20.30;64.70;;;;;;5056065;28;20420;-73
2022/05/22 04:26:34;;;;;;;7.28;1.60;;;20.30;63.80;;;;;;5057043;28;20063;-79
2022/05/22 04:29:03;;;;;;;5.93;1.58;;;20.20;62.90;;;;;;5050301;28;20037;-79
2022/05/22 04:31:29;;;;;;;8.18;2.13;;;20.20;62.10;;;;;;5034447;28;20529;-80
2022/05/22 04:33:55;;;;;;;5.57;1.42;;;20.10;62.50;;;;;;5034713;28;20426;-79
2022/05/22 04:36:21;;;;;;;;;;;20.10;62.30;;;;;;5052832;28;20079;-77
2022/05/22 04:38:47;;;;;;;5.68;1.80;;;20.00;62.50;;;;;;5034866;28;20373;-72
2022/05/22 04:41:13;;;;;;;;;;;20.00;62.30;;;;;;5034930;28;20080;-79
2022/05/22 04:43:39;;;;;;;4.55;1.73;;;20.00;62.40;;;;;;5052437;28;19925;-79
2022/05/22 04:46:07;;;;;;;;;;;20.00;62.30;;;;;;5072652;28;20036;-73
2022/05/22 04:48:33;;;;;;;10.68;2.53;;;20.00;62.10;;;;;;5054671;28;19962;-78
2022/05/22 04:50:59;;;;;;;;;;;20.00;62.10;;;;;;5072573;28;20037;-79
2022/05/22 04:53:27;;;;;;;20.65;7.43;;;20.00;61.30;;;;;;5054408;28;19985;-72
2022/05/22 04:55:53;;;;;;;24.75;11.05;;;20.10;61.30;;;;;;5054043;28;20474;-72
2022/05/22 04:58:20;;;;;;;21.38;9.27;;;20.00;60.70;;;;;;5054409;28;20481;-73
2022/05/22 05:00:47;;;;;;;13.65;5.95;;;20.10;61.30;;;;;;5071061;28;20547;-78
2022/05/22 05:03:14;;;;;;;7.07;3.25;;;20.00;60.30;;;;;;5054609;28;20086;-72
2022/05/22 05:05:41;;;;;;;5.95;1.95;;;20.00;60.40;;;;;;5053820;28;20029;-73
2022/05/22 05:08:07;;;;;;;6.30;1.45;;;20.10;59.70;;;;;;5054226;28;20043;-79
2022/05/22 05:10:33;;;;;;;7.57;2.08;;;20.10;59.40;;;;;;5037380;28;20039;-73
2022/05/22 05:13:02;;;;;;;6.20;1.67;;;20.10;59.50;;;;;;5054191;28;20037;-73
2022/05/22 05:15:29;;;;;;;7.55;1.80;;;20.10;59.10;;;;;;5070968;28;20042;-79
2022/05/22 05:17:56;;;;;;;6.10;1.77;;;20.20;59.30;;;;;;5037676;28;20462;-72
2022/05/22 05:20:23;;;;;;;7.40;1.50;;;20.30;59.00;;;;;;5053909;28;20033;-72
2022/05/22 05:22:50;;;;;;;7.30;1.60;;;20.40;58.60;;;;;;5054080;28;20032;-73
2022/05/22 05:25:17;;;;;;;4.43;1.58;;;20.50;58.40;;;;;;5053812;28;20043;-78
2022/05/22 05:27:43;;;;;;;7.75;1.65;;;20.60;58.10;;;;;;5071857;28;20048;-78
2022/05/22 05:30:10;;;;;;;6.63;1.50;;;20.70;58.30;;;;;;5053392;28;20044;-79
2022/05/22 05:32:36;;;;;;;5.18;1.52;;;20.80;57.80;;;;;;5057974;28;20078;-78
2022/05/22 05:35:07;;;;;;;;;;;20.90;57.70;;;;;;5058515;28;20098;-78
2022/05/22 05:37:34;;;;;;;5.50;1.40;;;20.90;57.80;;;;;;5075825;28;20258;-72
2022/05/22 05:40:02;;;;;;;4.32;1.40;;;21.00;58.00;;;;;;5076201;28;20083;-73
2022/05/22 05:42:48;;;;;;;4.85;1.50;;;21.00;57.30;;;;;;5057674;28;20028;-72
2022/05/22 05:45:15;;;;;;;7.35;1.85;;;21.00;58.00;;;;;;5053465;28;20033;-72
2022/05/22 05:47:46;;;;;;;4.90;1.60;;;21.10;58.00;;;;;;5037793;28;20033;-72
2022/05/22 05:50:13;;;;;;;8.10;1.70;;;21.10;57.90;;;;;;5037816;28;20033;-73
2022/05/22 05:52:39;;;;;;;4.35;1.58;;;21.10;58.10;;;;;;5055604;28;20049;-78
2022/05/22 05:55:06;;;;;;;;;;;21.20;58.20;;;;;;5056252;28;20033;-79
2022/05/22 05:57:32;;;;;;;5.90;1.63;;;21.20;57.90;;;;;;5055301;28;19960;-79
2022/05/22 05:59:58;;;;;;;;;;;21.30;58.10;;;;;;5045283;28;20090;-72
2022/05/22 06:02:25;;;;;;;4.53;1.83;;;21.50;57.30;;;;;;5074980;28;19995;-78
2022/05/22 06:04:51;;;;;;;6.00;2.10;;;21.60;57.50;;;;;;5057519;28;20401;-79
2022/05/22 06:07:18;;;;;;;4.53;1.92;;;21.80;57.50;;;;;;5040358;28;20032;-79
2022/05/22 06:09:44;;;;;;;5.28;2.30;;;21.90;56.90;;;;;;5057261;28;20063;-79
2022/05/22 06:12:10;;;;;;;;;;;22.10;57.40;;;;;;5057542;28;20374;-73
2022/05/22 06:14:36;;;;;;;6.25;2.08;;;22.10;57.10;;;;;;5039580;28;20054;-73
2022/05/22 06:17:02;;;;;;;;;;;22.20;56.90;;;;;;5075350;28;20397;-73
2022/05/22 06:22:15;;;;;;;5.97;2.30;;;22.40;55.90;;;;;;5059512;28;20028;-80
2022/05/22 06:24:41;;;;;;;7.03;2.50;;;22.50;55.70;;;;;;5057196;28;20029;-73
2022/05/22 06:27:07;;;;;;;;;;;22.60;55.10;;;;;;5056882;28;20048;-78
2022/05/22 06:29:33;;;;;;;5.95;1.70;;;22.80;55.30;;;;;;5055681;28;19920;-72
2022/05/22 06:31:59;;;;;;;;;;;22.80;53.60;;;;;;5057101;28;20032;-73
2022/05/22 06:34:26;;;;;;;6.22;2.00;;;23.00;54.50;;;;;;5040276;28;20273;-79
2022/05/22 06:36:52;;;;;;;6.50;2.15;;;23.10;54.00;;;;;;5074417;28;20033;-79
2022/05/22 06:42:05;;;;;;;3.95;1.83;;;23.30;53.10;;;;;;5073057;28;20046;-73
2022/05/22 06:44:31;;;;;;;4.95;2.25;;;23.40;53.10;;;;;;5055963;28;20083;-80
2022/05/22 06:46:57;;;;;;;;;;;23.50;53.10;;;;;;5074809;28;20419;-73
2022/05/22 06:49:23;;;;;;;5.00;2.20;;;23.60;54.10;;;;;;5074783;28;19920;-78
2022/05/22 06:51:50;;;;;;;;;;;23.70;52.80;;;;;;5056714;28;20029;-73
2022/05/22 06:54:16;;;;;;;7.20;2.20;;;23.80;52.90;;;;;;5056917;28;19925;-79
2022/05/22 06:56:43;;;;;;;;;;;24.00;52.00;;;;;;5074542;28;20047;-73
2022/05/22 06:59:09;;;;;;;7.70;2.13;;;24.10;52.30;;;;;;5074627;28;19924;-73
2022/05/22 07:01:35;;;;;;;3.97;1.80;;;24.30;51.80;;;;;;5055085;28;20127;-73
2022/05/22 07:04:01;;;;;;;7.07;2.55;;;24.50;50.80;;;;;;5056176;28;20040;-73
2022/05/22 07:06:27;;;;;;;;;;;24.70;50.70;;;;;;5074292;28;20043;-79
2022/05/22 07:08:53;;;;;;;4.50;2.20;;;24.90;51.10;;;;;;5039773;28;19920;-79
2022/05/22 07:14:04;;;;;;;4.50;1.80;;;25.20;50.60;;;;;;5058981;28;19951;-72
2022/05/22 07:16:31;;;;;;;5.72;2.20;;;25.20;49.10;;;;;;5054842;28;20192;-79
2022/05/22 07:18:57;;;;;;;6.43;1.80;;;25.20;49.60;;;;;;5074065;28;20415;-73
2022/05/22 07:21:24;;;;;;;6.72;2.10;;;25.30;48.70;;;;;;5055710;28;20024;-79
2022/05/22 07:23:51;;;;;;;11.43;3.17;;;25.40;48.60;;;;;;5073665;28;20127;-73
2022/05/22 07:26:19;;;;;;;6.68;1.95;;;25.50;47.60;;;;;;5055326;28;20040;-79
2022/05/22 07:28:46;;;;;;;7.78;2.10;;;25.60;47.50;;;;;;5073753;28;20091;-79
2022/05/22 07:31:32;;;;;;;8.90;2.35;;;25.70;47.00;;;;;;5051008;28;20075;-73
2022/05/22 07:33:59;;;;;;;20.00;2.60;;;25.80;48.00;;;;;;5053501;28;20406;-79
2022/05/22 07:36:25;;;;;;;6.57;1.92;;;25.90;47.10;;;;;;5035507;28;20117;-72
2022/05/22 07:38:52;;;;;;;4.90;1.77;;;26.00;46.40;;;;;;5035634;28;20032;-76
2022/05/22 07:41:21;;;;;;;6.93;1.73;;;26.00;44.80;;;;;;5018813;28;20063;-73
2022/05/22 07:43:47;;;;;;;5.57;2.10;;;26.00;44.50;;;;;;5036089;28;20064;-78
2022/05/22 07:46:13;;;;;;;7.57;2.50;;;26.00;44.20;;;;;;5045334;28;20040;-73
2022/05/22 07:48:51;;;;;;;7.95;2.42;;;26.20;42.20;;;;;;5055730;28;20047;-72
2022/05/22 07:51:17;;;;;;;4.35;1.60;;;26.20;42.20;;;;;;5072996;28;20039;-72
2022/05/22 07:53:43;;;;;;;5.28;1.80;;;26.30;41.80;;;;;;5054767;28;20033;-78
2022/05/22 07:56:12;;;;;;;4.00;1.58;;;26.30;41.30;;;;;;5054903;28;20028;-79
2022/05/22 07:58:39;;;;;;;4.53;1.70;;;26.40;40.70;;;;;;5055642;28;20363;-78
2022/05/22 08:01:06;;;;;;;6.85;2.00;;;26.50;40.40;;;;;;5071895;28;20124;-71
2022/05/22 08:03:32;;;;;;;4.65;1.80;;;26.60;39.80;;;;;;5053501;28;20512;-78
2022/05/22 08:06:02;;;;;;;6.32;2.00;;;26.80;39.60;;;;;;5072242;28;20103;-72
2022/05/22 08:08:28;;;;;;;6.95;2.67;;;26.90;39.30;;;;;;5055122;28;20033;-76
2022/05/22 08:10:58;;;;;;;5.38;1.80;;;26.90;39.10;;;;;;5085299;28;20059;-78
2022/05/22 08:13:25;;;;;;;3.90;1.83;;;26.90;38.70;;;;;;5058630;28;20028;-71
2022/05/22 08:15:51;;;;;;;5.60;1.83;;;27.00;39.10;;;;;;5064398;28;20116;-72
2022/05/22 08:18:17;;;;;;;10.15;2.40;;;27.00;38.50;;;;;;5056523;28;20098;-74
2022/05/22 08:20:44;;;;;;;4.22;1.80;;;27.20;39.30;;;;;;5054584;28;20029;-77
2022/05/22 08:23:17;;;;;;;5.22;1.77;;;27.30;38.60;;;;;;5042892;28;20489;-72
2022/05/22 08:25:44;;;;;;;8.38;1.92;;;27.40;38.40;;;;;;5050567;28;20044;-72
2022/05/22 08:28:19;;;;;;;3.88;1.60;;;27.40;38.30;;;;;;5038127;28;20043;-80
2022/05/22 08:30:46;;;;;;;4.97;2.00;;;27.40;38.00;;;;;;5052374;28;20068;-71
2022/05/22 08:33:13;;;;;;;8.93;3.40;;;27.40;37.10;;;;;;5054515;28;20494;-75
2022/05/22 08:35:42;;;;;;;7.25;2.80;;;27.40;37.50;;;;;;5037653;28;20028;-72
2022/05/22 08:38:08;;;;;;;5.85;2.60;;;27.50;37.50;;;;;;5072136;28;20449;-76
2022/05/22 08:41:12;;;;;;;3.25;1.52;;;27.60;37.10;;;;;;5054351;28;20032;-78
2022/05/22 08:44:34;;;;;;;4.75;1.75;;;28.00;36.60;;;;;;5072527;28;20394;-74
2022/05/22 08:47:39;;;;;;;5.00;1.60;;;28.30;36.50;;;;;;5071453;28;20511;-71
2022/05/22 08:50:12;;;;;;;6.18;1.30;;;28.80;35.80;;;;;;5029294;28;20124;-74
2022/05/22 08:52:52;;;;;;;7.95;1.63;;;29.00;33.90;;;;;;5058606;28;20052;-79
2022/05/22 08:55:23;;;;;;;3.92;1.50;;;29.00;34.40;;;;;;5054137;28;20389;-76
2022/05/22 09:01:21;;;;;;;3.53;1.40;;;29.60;33.80;;;;;;5055351;28;20150;-72
2022/05/22 09:03:53;;;;;;;4.15;1.80;;;29.70;31.40;;;;;;5054344;28;20040;-78
2022/05/22 09:06:29;;;;;;;3.80;1.75;;;30.30;31.00;;;;;;5051464;28;20187;-72
2022/05/22 09:08:58;;;;;;;3.60;1.38;;;31.00;31.40;;;;;;5036788;28;20049;-72
2022/05/22 09:12:02;;;;;;;4.13;1.90;;;31.70;30.00;;;;;;5052807;28;20595;-74
2022/05/22 09:15:08;;;;;;;16.45;3.05;;;32.50;30.40;;;;;;5033951;28;20119;-78
2022/05/22 09:18:01;;;;;;;6.25;1.98;;;33.10;29.60;;;;;;5028562;28;20558;-73
2022/05/22 09:21:23;;;;;;;3.97;1.40;;;33.80;27.90;;;;;;5033383;28;20406;-78
2022/05/22 09:24:44;;;;;;;4.13;1.67;;;34.70;28.40;;;;;;5034984;28;20087;-73
2022/05/22 09:27:18;;;;;;;3.88;1.50;;;35.70;27.60;;;;;;5050657;28;20493;-77
2022/05/22 09:30:42;;;;;;;4.15;1.70;;;36.40;25.20;;;;;;5030888;28;20033;-73
2022/05/22 09:34:05;;;;;;;3.15;1.30;;;37.40;25.80;;;;;;5053014;28;20045;-76
2022/05/22 09:37:15;;;;;;;3.03;1.50;;;38.00;25.40;;;;;;5052874;28;20053;-77
2022/05/22 09:39:56;;;;;;;7.32;1.77;;;38.60;22.90;;;;;;5052864;28;20398;-76
2022/05/22 09:43:00;;;;;;;5.00;1.50;;;39.50;21.70;;;;;;5052267;28;20564;-77
2022/05/22 09:46:19;;;;;;;7.20;2.03;;;40.30;22.10;;;;;;5052537;28;20448;-74
2022/05/22 09:49:10;;;;;;;5.50;2.10;;;40.80;21.80;;;;;;5071349;28;20119;-73
2022/05/22 09:52:04;;;;;;;4.35;1.30;;;41.30;20.40;;;;;;5040083;28;20044;-76
2022/05/22 09:54:54;;;;;;;3.85;1.50;;;41.70;19.50;;;;;;5057111;28;20037;-73
2022/05/22 09:57:35;;;;;;;3.13;1.45;;;42.20;19.70;;;;;;5074848;28;20033;-73
2022/05/22 10:00:08;;;;;;;6.50;1.60;;;42.50;18.00;;;;;;5076011;28;20040;-73
2022/05/22 10:03:03;;;;;;;3.58;1.63;;;42.70;16.50;;;;;;5073179;28;20069;-74
2022/05/22 10:06:13;;;;;;;3.75;1.88;;;43.20;18.00;;;;;;5037337;28;20485;-74
2022/05/22 10:09:36;;;;;;;3.75;1.60;;;43.70;17.80;;;;;;5055333;28;20033;-74
2022/05/22 10:12:58;;;;;;;6.28;1.60;;;44.30;18.00;;;;;;5061409;28;20032;-73
2022/05/22 10:15:44;;;;;;;4.20;1.70;;;44.80;17.70;;;;;;5074322;28;20600;-73
2022/05/22 10:18:39;;;;;;;5.93;1.98;;;45.50;16.70;;;;;;5051710;28;20048;-75
2022/05/22 10:21:26;;;;;;;4.55;1.75;;;45.90;16.00;;;;;;5055629;28;20120;-73
2022/05/22 10:24:36;;;;;;;6.15;1.77;;;46.30;16.20;;;;;;5038626;28;20091;-73
2022/05/22 10:27:26;;;;;;;5.10;1.67;;;46.80;16.10;;;;;;5056065;28;20051;-72
2022/05/22 10:30:17;;;;;;;5.18;1.70;;;47.20;15.60;;;;;;5075340;28;20044;-73
2022/05/22 10:32:46;;;;;;;3.17;1.58;;;47.60;15.10;;;;;;5055776;28;20037;-73
2022/05/22 10:36:08;;;;;;;4.63;1.85;;;48.00;14.50;;;;;;5074815;28;20037;-72
2022/05/22 10:39:12;;;;;;;6.85;2.42;;;47.90;14.40;;;;;;5074852;28;20423;-73
2022/05/22 10:42:47;;;;;;;3.75;1.83;;;48.00;14.70;;;;;;5055710;28;20028;-75
2022/05/22 10:45:50;;;;;;;4.25;2.10;;;48.00;14.60;;;;;;5073588;28;20036;-73
2022/05/22 10:48:22;;;;;;;4.45;2.25;;;48.10;14.00;;;;;;5055447;28;20045;-75
2022/05/22 10:51:27;;;;;;;4.47;2.25;;;48.10;13.00;;;;;;5056502;28;20285;-72
2022/05/22 10:53:55;;;;;;;7.35;2.22;;;48.10;13.50;;;;;;5074708;28;20041;-74
2022/05/22 10:56:44;;;;;;;4.88;1.90;;;47.90;12.80;;;;;;5074053;28;20460;-75
2022/05/22 10:59:22;;;;;;;4.97;2.15;;;48.10;13.40;;;;;;5031933;28;20439;-74
2022/05/22 11:02:00;;;;;;;5.15;2.03;;;48.40;13.00;;;;;;5030938;28;20036;-72
2022/05/22 11:04:59;;;;;;;6.05;2.38;;;48.80;12.90;;;;;;5022537;28;20048;-74
2022/05/22 11:08:08;;;;;;;4.93;2.28;;;49.50;13.20;;;;;;5030312;28;20092;-75
2022/05/22 11:10:38;;;;;;;3.15;1.92;;;50.00;13.00;;;;;;5033483;28;20522;-74
2022/05/22 11:13:25;;;;;;;4.45;2.25;;;49.80;12.60;;;;;;5015224;28;20112;-75
2022/05/22 11:15:52;;;;;;;5.53;2.15;;;49.90;12.30;;;;;;5031425;28;20037;-74
2022/05/22 11:18:24;;;;;;;9.27;2.50;;;49.70;12.00;;;;;;5030851;28;20045;-72
2022/05/22 11:21:12;;;;;;;5.25;2.95;;;49.80;12.70;;;;;;5014800;28;20033;-72
2022/05/22 11:24:15;;;;;;;7.43;2.58;;;49.90;11.50;;;;;;5011665;28;20038;-74
2022/05/22 11:27:34;;;;;;;6.07;3.65;;;50.50;11.90;;;;;;5011288;28;20254;-73
2022/05/22 11:30:30;;;;;;;7.43;4.10;;;51.10;12.10;;;;;;5048220;28;20434;-72
2022/05/22 11:33:46;;;;;;;5.43;2.90;;;51.50;12.10;;;;;;5072856;28;20099;-75
2022/05/22 11:36:30;;;;;;;8.82;3.17;;;51.80;11.60;;;;;;5059231;28;20555;-74
2022/05/22 11:39:58;;;;;;;10.68;7.40;;;51.80;11.70;;;;;;5053742;28;20115;-72
2022/05/22 11:42:40;;;;;;;7.13;3.03;;;52.00;12.00;;;;;;5037424;28;20403;-74
2022/05/22 11:45:19;;;;;;;5.13;2.70;;;52.30;11.70;;;;;;5054732;28;20090;-74
2022/05/22 11:48:41;;;;;;;6.15;2.63;;;52.50;10.80;;;;;;5054433;28;20032;-73
2022/05/22 11:51:52;;;;;;;6.78;3.00;;;52.50;11.20;;;;;;5038569;28;20037;-73
2022/05/22 11:55:12;;;;;;;4.32;2.53;;;52.50;11.40;;;;;;5054998;28;20029;-73
2022/05/22 11:58:15;;;;;;;5.65;3.03;;;52.40;11.60;;;;;;5073007;28;20033;-74
2022/05/22 12:00:57;;;;;;;3.90;2.80;;;52.50;11.60;;;;;;5038314;28;20037;-73
2022/05/22 12:04:19;;;;;;;4.93;3.08;;;52.90;11.60;;;;;;5054212;28;20037;-74
2022/05/22 12:07:22;;;;;;;3.75;2.72;;;53.40;11.70;;;;;;5072704;28;20035;-75
2022/05/22 12:10:09;;;;;;;6.18;3.35;;;53.80;11.40;;;;;;5073397;28;20043;-75
2022/05/22 12:13:08;;;;;;;7.72;3.05;;;53.80;10.10;;;;;;5055023;28;20441;-73
2022/05/22 12:16:07;;;;;;;4.53;2.80;;;53.90;10.90;;;;;;5054709;28;20055;-74
2022/05/22 12:19:29;;;;;;;4.10;3.28;;;54.00;10.60;;;;;;5054140;28;20059;-74
2022/05/22 12:25:23;;;;;;;4.35;2.85;;;53.90;10.50;;;;;;5072950;28;20443;-73
2022/05/22 12:27:53;;;;;;;6.05;3.65;;;54.40;10.70;;;;;;5052483;28;20102;-74
2022/05/22 12:30:39;;;;;;;3.95;3.10;;;54.70;11.00;;;;;;5053436;28;20444;-72
2022/05/22 12:33:10;;;;;;;4.43;3.20;;;54.70;10.70;;;;;;5053815;28;20086;-72
2022/05/22 12:35:39;;;;;;;5.55;3.22;;;54.80;10.50;;;;;;5053815;28;20029;-75
2022/05/22 12:38:09;;;;;;;6.53;3.30;;;54.80;10.50;;;;;;5054775;28;20381;-75
2022/05/22 12:41:12;;;;;;;6.07;3.72;;;54.60;10.80;;;;;;5053715;28;20029;-74
2022/05/22 12:43:40;;;;;;;5.93;3.03;;;54.30;11.40;;;;;;5072094;28;20047;-74
2022/05/22 12:46:12;;;;;;;12.95;3.78;;;54.40;10.60;;;;;;5053519;28;20400;-74
2022/05/22 12:48:45;;;;;;;7.90;3.40;;;54.20;11.60;;;;;;5053843;28;20074;-72
2022/05/22 12:51:41;;;;;;;4.78;3.50;;;54.30;10.90;;;;;;5054590;28;20036;-73
2022/05/22 12:54:27;;;;;;;9.07;3.95;;;54.10;10.90;;;;;;5055377;28;20097;-73
2022/05/22 12:57:23;;;;;;;5.55;3.05;;;53.30;11.30;;;;;;5037436;28;20115;-74
2022/05/22 13:00:30;;;;;;;5.30;2.95;;;53.30;11.40;;;;;;5072809;28;20524;-74
2022/05/22 13:03:34;;;;;;;4.57;3.33;;;53.60;11.40;;;;;;5036845;28;20048;-72
2022/05/22 13:06:20;;;;;;;6.95;2.92;;;54.00;11.00;;;;;;5054241;28;20038;-72
2022/05/22 13:09:08;;;;;;;7.13;3.25;;;53.80;10.50;;;;;;5054340;28;20036;-72
2022/05/22 13:12:30;;;;;;;5.70;3.17;;;53.20;11.10;;;;;;5053905;28;20036;-73
2022/05/22 13:15:16;;;;;;;4.35;3.28;;;52.70;11.60;;;;;;5072634;28;20028;-72
2022/05/22 13:17:53;;;;;;;6.30;3.17;;;52.50;11.60;;;;;;5054346;28;20056;-72
2022/05/22 13:20:37;;;;;;;4.63;2.80;;;52.20;12.30;;;;;;5054488;28;20033;-72
2022/05/22 13:23:22;;;;;;;6.60;3.10;;;52.00;12.30;;;;;;5072328;28;20025;-73
2022/05/22 13:25:49;;;;;;;5.35;2.42;;;51.50;12.40;;;;;;5053600;28;20517;-74
2022/05/22 13:28:39;;;;;;;6.30;2.70;;;50.80;12.20;;;;;;5072098;28;20029;-74
2022/05/22 13:31:11;;;;;;;4.63;2.28;;;50.80;12.30;;;;;;5071893;28;20060;-72
2022/05/22 13:33:51;;;;;;;9.18;2.95;;;50.60;12.80;;;;;;5071008;28;20140;-73
2022/05/22 13:36:45;;;;;;;7.97;2.63;;;50.20;12.90;;;;;;5053821;28;20058;-74
2022/05/22 13:39:19;;;;;;;5.28;2.30;;;50.00;13.30;;;;;;5054592;28;20111;-73
2022/05/22 13:42:23;;;;;;;;;;;49.80;13.20;;;;;;5054374;28;20438;-73
2022/05/22 13:45:26;;;;;;;4.20;2.25;;;49.10;13.60;;;;;;5072275;28;19921;-74
2022/05/22 13:48:29;;;;;;;6.35;2.05;;;48.50;14.00;;;;;;5051894;28;20033;-74
2022/05/22 13:55:11;;;;;;;3.65;2.08;;;46.40;15.10;;;;;;5055469;28;20036;-72
2022/05/22 13:58:08;;;;;;;5.00;2.35;;;45.10;15.70;;;;;;5055566;28;20488;-74
2022/05/22 14:00:39;;;;;;;3.10;1.80;;;44.00;16.30;;;;;;5037266;28;20533;-75
2022/05/22 14:03:09;;;;;;;3.72;1.70;;;43.20;17.10;;;;;;5037475;28;20029;-73
2022/05/22 14:05:40;;;;;;;6.15;2.50;;;42.40;17.20;;;;;;5053512;28;20033;-75
2022/05/22 14:08:29;;;;;;;3.50;1.95;;;41.80;18.60;;;;;;5037374;28;20029;-75
2022/05/22 14:11:49;;;;;;;6.10;2.13;;;41.30;18.90;;;;;;5037489;28;20426;-75
2022/05/22 14:14:34;;;;;;;6.38;2.17;;;40.80;19.40;;;;;;5055501;28;20052;-74